Terminal Aerodrome Forecast
Issued by NWS

Home | Current Version | Previous Version | Text Only | Print | Product List | Glossary Off
Versions: 1 2 3 4 5 6 7 8 9 10 11 12 13 14 15 16 17 18 19

000
FTUS41 KCLE 032300
TAFFDY
TAF
KFDY 032325Z 0400/0424 21015G25KT P6SM OVC007
      TEMPO 0400/0404 4SM -RA
     FM040400 28011KT P6SM OVC007
     FM040700 30010KT P6SM OVC015=

USA.gov is the U.S. government's official web portal to all federal, state and local government web resources and services.